Time;durP1;ratioP1;P1;durP2;ratioP2;P2;SDS_P1;SDS_P2;PMS_P1;PMS_P2;Temp;Humidity;BMP_temperature;BMP_pressure;BME280_temperature;BME280_humidity;BME280_pressure;Samples;Min_cycle;Max_cycle;Signal;HPM_P1;HPM_P2
2020/12/15 00:00:14;;;;;;;1.50;1.40;;;19.90;56.10;;;;;;5030159;28;20481;-69
2020/12/15 00:02:40;;;;;;;1.93;1.50;;;19.90;56.10;;;;;;5050152;28;20473;-67
2020/12/15 00:05:06;;;;;;;1.60;1.50;;;19.80;56.20;;;;;;5069451;28;20483;-67
2020/12/15 00:07:32;;;;;;;2.10;1.23;;;19.80;56.60;;;;;;5064933;28;20476;-66
2020/12/15 00:09:59;;;;;;;0.83;0.83;;;19.80;57.20;;;;;;5064042;28;21251;-68
2020/12/15 00:12:25;;;;;;;2.77;1.30;;;19.80;56.90;;;;;;5029122;28;20502;-68
2020/12/15 00:14:52;;;;;;;2.73;1.50;;;19.80;57.00;;;;;;5078915;28;21020;-67
2020/12/15 00:17:18;;;;;;;1.37;1.30;;;19.90;57.10;;;;;;5068022;28;20859;-67
2020/12/15 00:19:44;;;;;;;1.20;1.03;;;19.90;56.80;;;;;;5076785;28;20507;-68
2020/12/15 00:22:10;;;;;;;1.00;0.93;;;19.90;57.50;;;;;;5070290;28;20477;-67
2020/12/15 00:24:36;;;;;;;1.10;1.10;;;19.90;56.90;;;;;;5069124;28;20484;-67
2020/12/15 00:27:03;;;;;;;1.27;1.17;;;19.90;56.40;;;;;;5070743;28;20588;-68
2020/12/15 00:29:29;;;;;;;1.17;1.17;;;19.90;56.10;;;;;;5071170;28;21537;-68
2020/12/15 00:31:55;;;;;;;1.13;1.13;;;19.90;56.00;;;;;;5074764;28;20469;-68
2020/12/15 00:34:22;;;;;;;1.53;1.00;;;19.80;55.70;;;;;;5069365;28;20489;-68
2020/12/15 00:36:48;;;;;;;1.10;1.10;;;19.80;55.90;;;;;;5064247;28;21087;-67
2020/12/15 00:39:14;;;;;;;1.50;1.40;;;19.80;55.80;;;;;;5071266;28;20485;-67
2020/12/15 00:41:40;;;;;;;2.80;1.27;;;19.80;55.60;;;;;;5072694;28;20481;-69
2020/12/15 00:44:07;;;;;;;1.20;1.20;;;19.90;55.60;;;;;;5060398;27;20872;-68
2020/12/15 00:46:33;;;;;;;0.80;0.80;;;19.90;55.60;;;;;;5075860;28;20489;-67
2020/12/15 00:48:59;;;;;;;1.37;1.20;;;19.90;55.40;;;;;;5071883;28;20481;-68
2020/12/15 00:51:26;;;;;;;1.47;1.37;;;19.80;55.70;;;;;;5069974;28;20469;-67
2020/12/15 00:53:52;;;;;;;1.00;1.00;;;19.80;55.10;;;;;;5072565;28;20485;-67
2020/12/15 00:56:18;;;;;;;1.37;1.37;;;19.80;55.30;;;;;;5070381;28;20492;-67
2020/12/15 00:58:44;;;;;;;1.17;1.17;;;19.80;56.10;;;;;;5074384;28;20487;-67
2020/12/15 01:01:11;;;;;;;1.17;1.10;;;19.80;55.30;;;;;;5070049;28;20485;-69
2020/12/15 01:03:38;;;;;;;1.00;1.00;;;19.80;55.20;;;;;;5072849;28;20479;-68
2020/12/15 01:06:04;;;;;;;1.17;1.13;;;19.80;55.10;;;;;;5070841;28;21634;-69
2020/12/15 01:08:30;;;;;;;0.93;0.93;;;19.80;55.10;;;;;;5070528;28;20481;-68
2020/12/15 01:10:56;;;;;;;1.00;1.00;;;19.80;55.00;;;;;;5059839;28;20473;-68
2020/12/15 01:13:23;;;;;;;1.40;1.40;;;19.80;55.00;;;;;;5079624;27;20516;-68
2020/12/15 01:15:49;;;;;;;1.40;1.40;;;19.80;55.00;;;;;;5082606;27;20469;-68
2020/12/15 01:18:16;;;;;;;1.40;1.30;;;19.80;55.00;;;;;;5077919;28;20479;-67
2020/12/15 01:20:42;;;;;;;1.50;1.47;;;19.80;56.00;;;;;;5071522;28;20496;-66
2020/12/15 01:23:08;;;;;;;1.50;1.40;;;19.80;56.90;;;;;;5073974;28;20480;-67
2020/12/15 01:25:34;;;;;;;1.07;1.07;;;19.80;56.60;;;;;;5072800;28;20502;-68
2020/12/15 01:28:00;;;;;;;0.93;0.93;;;19.80;55.70;;;;;;5064345;28;20523;-68
2020/12/15 01:30:26;;;;;;;1.83;1.20;;;19.80;55.50;;;;;;5070362;28;20477;-68
2020/12/15 01:32:52;;;;;;;1.03;1.00;;;19.90;55.50;;;;;;5068433;28;20489;-67
2020/12/15 01:35:21;;;;;;;1.20;1.10;;;19.90;55.20;;;;;;5068803;28;20494;-68
2020/12/15 01:37:47;;;;;;;1.37;1.27;;;19.90;55.10;;;;;;5068185;28;20481;-67
2020/12/15 01:40:14;;;;;;;1.40;1.40;;;19.90;55.10;;;;;;5061527;28;20488;-68
2020/12/15 01:42:40;;;;;;;1.40;1.17;;;19.90;55.60;;;;;;5080975;28;20481;-68
2020/12/15 01:45:06;;;;;;;1.47;1.37;;;19.90;55.10;;;;;;5069793;28;20485;-68
2020/12/15 01:47:32;;;;;;;1.63;1.47;;;19.90;55.10;;;;;;5068995;28;21718;-67
2020/12/15 01:49:58;;;;;;;1.53;1.37;;;19.90;55.10;;;;;;5070017;28;20500;-67
2020/12/15 01:52:27;;;;;;;1.10;1.10;;;19.90;55.10;;;;;;5067681;28;20537;-66
2020/12/15 01:54:53;;;;;;;1.27;1.17;;;19.90;55.10;;;;;;5071391;28;20490;-68
2020/12/15 01:57:19;;;;;;;1.53;1.23;;;19.90;55.10;;;;;;5062230;28;20559;-68
2020/12/15 01:59:46;;;;;;;1.40;1.30;;;19.90;55.10;;;;;;5070548;28;20482;-68
2020/12/15 02:02:12;;;;;;;1.63;1.43;;;19.80;55.00;;;;;;5050236;28;20474;-68
2020/12/15 02:04:38;;;;;;;1.77;1.57;;;19.90;55.10;;;;;;5008472;28;20935;-67
2020/12/15 02:07:04;;;;;;;1.93;1.83;;;19.80;55.00;;;;;;5030276;28;20517;-67
2020/12/15 02:09:31;;;;;;;1.63;1.17;;;19.90;55.10;;;;;;5028037;28;20482;-68
2020/12/15 02:11:57;;;;;;;1.17;1.17;;;19.90;55.10;;;;;;5034358;28;20494;-68
2020/12/15 02:14:23;;;;;;;1.50;1.40;;;19.90;55.10;;;;;;5017023;28;21315;-68
2020/12/15 02:16:50;;;;;;;1.40;1.40;;;19.80;55.00;;;;;;5037240;28;21028;-67
2020/12/15 02:19:17;;;;;;;1.10;1.10;;;19.80;55.60;;;;;;5040949;28;21072;-67
2020/12/15 02:21:51;;;;;;;0.80;0.80;;;19.90;55.10;;;;;;5047092;28;21582;-67
2020/12/15 02:24:17;;;;;;;1.40;1.40;;;19.90;55.10;;;;;;5048085;28;20484;-68
2020/12/15 02:26:44;;;;;;;1.17;1.17;;;19.90;55.10;;;;;;5035306;28;20494;-68
2020/12/15 02:29:10;;;;;;;1.10;1.10;;;19.90;55.10;;;;;;5022572;28;21304;-68
2020/12/15 02:31:36;;;;;;;1.70;1.60;;;19.90;55.10;;;;;;5030833;28;20478;-68
2020/12/15 02:34:02;;;;;;;1.20;1.10;;;20.00;55.20;;;;;;5047725;28;20512;-68
2020/12/15 02:36:28;;;;;;;1.20;1.20;;;19.90;55.10;;;;;;5050850;28;20484;-69
2020/12/15 02:39:01;;;;;;;1.10;0.97;;;19.90;55.10;;;;;;5048058;28;20593;-68
2020/12/15 02:41:27;;;;;;;1.87;1.20;;;19.90;55.10;;;;;;5048197;28;20482;-68
2020/12/15 02:43:53;;;;;;;1.30;1.20;;;19.90;55.10;;;;;;5040228;28;20494;-67
2020/12/15 02:46:19;;;;;;;2.40;1.40;;;19.90;55.10;;;;;;5051363;28;21546;-67
2020/12/15 02:48:46;;;;;;;1.33;1.33;;;19.90;55.10;;;;;;5048046;28;20496;-68
2020/12/15 02:51:12;;;;;;;1.13;1.13;;;19.90;55.00;;;;;;5029074;28;20486;-67
2020/12/15 02:53:38;;;;;;;1.00;1.00;;;19.80;55.00;;;;;;5020192;28;20525;-68
2020/12/15 02:56:05;;;;;;;1.50;1.43;;;19.90;55.10;;;;;;5017103;28;20489;-67
2020/12/15 02:58:31;;;;;;;1.23;0.97;;;19.80;55.70;;;;;;5033294;28;20885;-67
2020/12/15 03:00:57;;;;;;;1.40;1.23;;;19.80;55.00;;;;;;5046278;28;20886;-68
2020/12/15 03:03:23;;;;;;;1.50;1.40;;;19.80;55.00;;;;;;5038864;28;20522;-67
2020/12/15 03:05:49;;;;;;;1.07;1.07;;;19.80;55.00;;;;;;5036876;28;20487;-68
2020/12/15 03:08:16;;;;;;;1.30;1.30;;;19.80;55.00;;;;;;5051875;28;20472;-67
2020/12/15 03:10:42;;;;;;;1.53;1.43;;;19.80;55.00;;;;;;5035559;28;20492;-68
2020/12/15 03:13:09;;;;;;;2.20;1.40;;;19.80;55.00;;;;;;5035455;28;20485;-68
2020/12/15 03:15:35;;;;;;;1.07;0.97;;;19.90;55.10;;;;;;5040988;28;20950;-68
2020/12/15 03:18:01;;;;;;;1.63;1.53;;;19.80;55.00;;;;;;5042338;28;20893;-68
2020/12/15 03:20:27;;;;;;;2.70;1.50;;;19.90;55.10;;;;;;5056430;28;20920;-67
2020/12/15 03:22:53;;;;;;;1.43;1.33;;;19.80;55.00;;;;;;5051953;28;20486;-67
2020/12/15 03:25:20;;;;;;;1.50;1.40;;;19.90;55.80;;;;;;5053137;28;20493;-66
2020/12/15 03:27:46;;;;;;;1.33;1.20;;;19.90;55.10;;;;;;5051615;28;20488;-67
2020/12/15 03:30:13;;;;;;;1.37;1.27;;;19.90;55.10;;;;;;5044784;28;20486;-69
2020/12/15 03:32:39;;;;;;;1.47;1.47;;;19.90;55.10;;;;;;5052306;28;20848;-68
2020/12/15 03:35:06;;;;;;;1.20;1.20;;;19.90;55.10;;;;;;5046312;28;20500;-69
2020/12/15 03:37:32;;;;;;;1.40;1.30;;;19.90;55.10;;;;;;5048225;28;20496;-67
2020/12/15 03:39:58;;;;;;;2.70;1.47;;;19.80;55.00;;;;;;5046406;28;20523;-67
2020/12/15 03:42:24;;;;;;;2.40;1.33;;;19.90;55.00;;;;;;5053433;28;20492;-68
2020/12/15 03:44:50;;;;;;;1.43;1.33;;;19.80;55.00;;;;;;5041333;28;20489;-68
2020/12/15 03:47:17;;;;;;;1.43;1.43;;;19.90;55.10;;;;;;5054149;28;20490;-68
2020/12/15 03:49:43;;;;;;;1.17;1.17;;;19.80;55.00;;;;;;5032673;28;20539;-67
2020/12/15 03:52:09;;;;;;;1.30;1.13;;;19.80;55.00;;;;;;5029866;28;20491;-67
2020/12/15 03:54:35;;;;;;;1.00;1.00;;;19.80;55.00;;;;;;5026599;28;20473;-67
2020/12/15 03:57:02;;;;;;;1.97;1.50;;;19.80;55.00;;;;;;5039980;28;20493;-68
2020/12/15 03:59:28;;;;;;;1.10;1.10;;;19.80;55.00;;;;;;5043137;28;20485;-67
2020/12/15 04:01:54;;;;;;;1.40;1.40;;;19.80;55.00;;;;;;5073058;28;20493;-68
2020/12/15 04:04:21;;;;;;;3.30;1.37;;;19.80;55.00;;;;;;5067135;28;20484;-68
2020/12/15 04:06:47;;;;;;;1.50;1.40;;;19.80;55.00;;;;;;5017714;28;20496;-68
2020/12/15 04:09:13;;;;;;;1.57;1.57;;;19.80;55.00;;;;;;5048633;28;20484;-68
2020/12/15 04:11:39;;;;;;;1.40;1.40;;;19.80;55.80;;;;;;5072774;28;20476;-69
2020/12/15 04:14:05;;;;;;;1.47;1.20;;;19.80;56.50;;;;;;5063521;27;20468;-66
2020/12/15 04:16:31;;;;;;;1.70;1.60;;;19.80;56.70;;;;;;5049659;28;20993;-68
2020/12/15 04:18:58;;;;;;;1.27;1.20;;;19.80;56.80;;;;;;5051483;28;21183;-68
2020/12/15 04:21:25;;;;;;;2.40;1.60;;;19.80;57.00;;;;;;5064839;28;21523;-68
2020/12/15 04:23:51;;;;;;;1.70;1.67;;;19.80;57.00;;;;;;5026694;28;20544;-67
2020/12/15 04:26:17;;;;;;;1.67;1.57;;;19.90;56.70;;;;;;5048656;28;20504;-67
2020/12/15 04:28:43;;;;;;;1.20;1.20;;;19.90;56.50;;;;;;5033076;28;20486;-68
2020/12/15 04:31:09;;;;;;;1.60;1.50;;;20.00;56.50;;;;;;5070928;28;20481;-68
2020/12/15 04:33:35;;;;;;;2.40;1.63;;;20.00;56.20;;;;;;5052857;28;20500;-67
2020/12/15 04:36:01;;;;;;;1.63;1.53;;;20.00;56.10;;;;;;5036569;28;20493;-67
2020/12/15 04:38:28;;;;;;;1.67;1.67;;;19.90;56.40;;;;;;5067408;28;20482;-67
2020/12/15 04:40:54;;;;;;;1.50;1.40;;;19.80;56.70;;;;;;5065958;28;20535;-67
2020/12/15 04:43:21;;;;;;;1.27;1.13;;;19.90;56.50;;;;;;5074485;28;20496;-67
2020/12/15 04:45:47;;;;;;;1.30;1.20;;;19.90;56.00;;;;;;5053320;27;20481;-66
2020/12/15 04:48:16;;;;;;;1.20;1.20;;;19.80;56.20;;;;;;5076688;28;20480;-65
2020/12/15 04:50:42;;;;;;;1.40;1.40;;;19.80;55.90;;;;;;5077447;28;20566;-65
2020/12/15 04:53:09;;;;;;;1.40;1.40;;;19.70;55.40;;;;;;5071475;28;20489;-66
2020/12/15 04:55:36;;;;;;;1.57;1.50;;;19.70;55.70;;;;;;5056627;28;20493;-66
2020/12/15 04:58:03;;;;;;;1.30;1.23;;;19.80;55.70;;;;;;5067430;28;20500;-66
2020/12/15 05:00:29;;;;;;;1.23;1.20;;;19.70;54.90;;;;;;5051434;28;21270;-65
2020/12/15 05:02:57;;;;;;;1.73;1.43;;;19.70;55.30;;;;;;5068146;28;20501;-65
2020/12/15 05:05:24;;;;;;;1.70;1.60;;;19.70;54.90;;;;;;5061914;28;20493;-65
2020/12/15 05:07:50;;;;;;;1.50;1.40;;;19.70;54.90;;;;;;5061085;28;20486;-64
2020/12/15 05:10:18;;;;;;;1.73;1.63;;;19.70;54.90;;;;;;5062929;28;20550;-66
2020/12/15 05:12:46;;;;;;;3.80;1.70;;;19.70;55.90;;;;;;5074986;28;20523;-67
2020/12/15 05:15:12;;;;;;;1.83;1.73;;;19.70;56.50;;;;;;5060039;28;20480;-67
2020/12/15 05:17:39;;;;;;;1.40;1.40;;;19.70;57.00;;;;;;5077209;28;20492;-69
2020/12/15 05:20:05;;;;;;;2.67;2.47;;;19.70;57.80;;;;;;5057178;28;20480;-68
2020/12/15 05:22:44;;;;;;;3.00;1.80;;;19.80;57.00;;;;;;5055851;28;20493;-68
2020/12/15 05:25:21;;;;;;;1.53;1.50;;;19.80;56.90;;;;;;5055413;28;20485;-67
2020/12/15 05:27:48;;;;;;;1.40;1.40;;;19.80;56.70;;;;;;5069954;28;20505;-68
2020/12/15 05:30:15;;;;;;;1.30;1.30;;;19.80;56.60;;;;;;5063344;28;20891;-67
2020/12/15 05:32:50;;;;;;;1.20;1.20;;;19.80;56.60;;;;;;5048162;28;20614;-67
2020/12/15 05:35:25;;;;;;;2.30;1.60;;;19.90;56.30;;;;;;5049414;28;20496;-68
2020/12/15 05:37:51;;;;;;;1.37;1.37;;;19.90;56.40;;;;;;5043616;28;20552;-67
2020/12/15 05:40:17;;;;;;;1.83;1.73;;;19.90;56.40;;;;;;5054635;28;21002;-67
2020/12/15 05:42:44;;;;;;;1.70;1.60;;;19.80;56.60;;;;;;5063374;28;20473;-67
2020/12/15 05:45:18;;;;;;;0.93;0.93;;;19.80;56.90;;;;;;5055975;28;20486;-68
2020/12/15 05:47:44;;;;;;;2.40;1.33;;;19.70;56.60;;;;;;5047739;28;20492;-67
2020/12/15 05:50:11;;;;;;;1.43;1.33;;;19.80;57.00;;;;;;5065205;28;20532;-68
2020/12/15 05:52:37;;;;;;;1.57;1.47;;;19.70;56.90;;;;;;5060817;28;20481;-67
2020/12/15 05:55:06;;;;;;;1.40;1.30;;;19.70;56.60;;;;;;5068164;28;20476;-67
2020/12/15 05:57:32;;;;;;;1.23;1.23;;;19.70;57.00;;;;;;5051524;28;20489;-67
2020/12/15 06:00:07;;;;;;;1.10;1.10;;;19.70;57.00;;;;;;5068279;28;20469;-69
2020/12/15 06:02:34;;;;;;;1.70;1.60;;;19.70;55.90;;;;;;5056780;28;20528;-67
2020/12/15 06:05:00;;;;;;;1.40;1.30;;;19.70;55.80;;;;;;5058643;28;21014;-67
2020/12/15 06:07:26;;;;;;;1.67;1.57;;;19.70;55.50;;;;;;5070253;28;20523;-68
2020/12/15 06:09:53;;;;;;;1.53;1.40;;;19.70;54.90;;;;;;5058652;28;20510;-67
2020/12/15 06:12:19;;;;;;;1.90;1.40;;;19.70;54.90;;;;;;5029749;28;20516;-69
2020/12/15 06:14:45;;;;;;;1.70;1.60;;;19.70;54.90;;;;;;5069354;28;22261;-69
2020/12/15 06:17:11;;;;;;;1.73;1.63;;;19.70;54.90;;;;;;5066509;28;22050;-68
2020/12/15 06:19:38;;;;;;;1.77;1.63;;;19.60;54.80;;;;;;5069526;28;20515;-67
2020/12/15 06:22:04;;;;;;;1.33;1.13;;;19.60;54.80;;;;;;5066426;28;20485;-67
2020/12/15 06:24:38;;;;;;;1.30;1.20;;;19.60;54.80;;;;;;5070491;28;20486;-68
2020/12/15 06:27:04;;;;;;;1.73;1.63;;;19.60;54.80;;;;;;5068376;28;20504;-67
2020/12/15 06:29:31;;;;;;;1.13;1.13;;;19.60;54.80;;;;;;5073071;28;20473;-68
2020/12/15 06:31:58;;;;;;;1.30;1.23;;;19.60;54.80;;;;;;5039267;28;20471;-66
2020/12/15 06:34:28;;;;;;;1.17;1.10;;;19.60;54.80;;;;;;5047094;28;21508;-68
2020/12/15 06:36:55;;;;;;;1.00;1.00;;;19.60;54.70;;;;;;5048655;28;21033;-67
2020/12/15 06:39:22;;;;;;;1.13;1.13;;;19.60;54.80;;;;;;5039822;28;20628;-67
2020/12/15 06:41:55;;;;;;;1.33;1.23;;;19.60;54.50;;;;;;5049953;28;20561;-67
2020/12/15 06:44:31;;;;;;;1.77;1.67;;;19.60;54.50;;;;;;5048223;28;20490;-69
2020/12/15 06:46:57;;;;;;;1.70;1.70;;;19.60;54.80;;;;;;5047707;28;20462;-68
2020/12/15 06:49:30;;;;;;;1.20;1.13;;;19.60;54.80;;;;;;5050400;28;20620;-67
2020/12/15 06:51:57;;;;;;;1.30;1.30;;;19.60;54.80;;;;;;5048587;28;20474;-68
2020/12/15 06:54:26;;;;;;;1.03;1.03;;;19.60;54.30;;;;;;5041456;28;20486;-67
2020/12/15 06:57:00;;;;;;;1.30;1.30;;;19.60;54.20;;;;;;5052486;28;20481;-68
2020/12/15 06:59:35;;;;;;;1.43;1.33;;;19.60;55.10;;;;;;5044494;28;20514;-68
2020/12/15 07:02:09;;;;;;;1.13;1.03;;;19.60;54.80;;;;;;5048165;28;20482;-68
2020/12/15 07:04:42;;;;;;;1.43;1.33;;;19.70;54.90;;;;;;5073708;28;21076;-67
2020/12/15 07:07:10;;;;;;;1.67;1.57;;;19.70;55.70;;;;;;5062151;28;20485;-68
2020/12/15 07:09:36;;;;;;;1.20;1.20;;;19.80;55.00;;;;;;5052692;28;20477;-68
2020/12/15 07:12:03;;;;;;;1.33;1.33;;;19.80;55.00;;;;;;5040979;28;20966;-68
2020/12/15 07:14:29;;;;;;;1.40;1.30;;;19.80;55.00;;;;;;5052995;28;20501;-68
2020/12/15 07:16:55;;;;;;;2.03;1.77;;;19.90;55.10;;;;;;5049668;28;20485;-68
2020/12/15 07:19:22;;;;;;;1.30;1.20;;;19.80;55.00;;;;;;5034502;28;20494;-69
2020/12/15 07:21:49;;;;;;;0.90;0.90;;;19.80;55.00;;;;;;5050066;28;20493;-69
2020/12/15 07:24:16;;;;;;;1.10;1.10;;;19.80;55.70;;;;;;5051459;28;20480;-68
2020/12/15 07:26:42;;;;;;;1.20;1.20;;;19.80;55.00;;;;;;5037668;28;20481;-67
2020/12/15 07:29:08;;;;;;;1.10;1.10;;;19.70;55.30;;;;;;5071141;28;20488;-67
2020/12/15 07:31:34;;;;;;;1.23;1.23;;;19.70;55.50;;;;;;5072559;28;20480;-68
2020/12/15 07:34:07;;;;;;;1.20;1.20;;;19.70;55.40;;;;;;5071954;28;20503;-68
2020/12/15 07:36:34;;;;;;;1.23;1.23;;;19.80;55.40;;;;;;5056030;28;20492;-68
2020/12/15 07:39:00;;;;;;;1.20;1.20;;;19.80;55.10;;;;;;5063826;28;20481;-68
2020/12/15 07:41:27;;;;;;;1.47;1.47;;;19.80;55.70;;;;;;5060122;28;20482;-68
2020/12/15 07:43:53;;;;;;;0.83;0.83;;;19.90;55.10;;;;;;5064390;27;20491;-65
2020/12/15 07:46:23;;;;;;;1.47;1.47;;;19.80;55.00;;;;;;5056562;27;20473;-65
2020/12/15 07:48:49;;;;;;;1.20;1.10;;;19.90;55.10;;;;;;5037477;28;20470;-65
2020/12/15 07:51:15;;;;;;;1.00;1.00;;;19.80;55.00;;;;;;5047190;28;20492;-65
2020/12/15 07:53:49;;;;;;;1.10;1.10;;;19.80;55.00;;;;;;5044422;28;20474;-66
2020/12/15 07:56:15;;;;;;;1.37;1.37;;;19.70;54.90;;;;;;5023303;28;20493;-66
2020/12/15 07:58:43;;;;;;;1.40;1.40;;;19.70;54.90;;;;;;5050304;28;20481;-66
2020/12/15 08:01:09;;;;;;;1.00;1.00;;;19.70;54.90;;;;;;5036637;28;20478;-66
2020/12/15 08:03:35;;;;;;;1.60;1.50;;;19.80;55.00;;;;;;5045636;28;20553;-66
2020/12/15 08:06:07;;;;;;;1.07;1.07;;;19.80;55.00;;;;;;5035920;28;21482;-66
2020/12/15 08:08:34;;;;;;;1.03;1.03;;;19.80;55.00;;;;;;5047385;28;20493;-65
2020/12/15 08:11:00;;;;;;;1.40;1.30;;;19.80;55.00;;;;;;5070703;28;20496;-66
2020/12/15 08:13:26;;;;;;;1.33;1.30;;;19.80;55.00;;;;;;5053265;28;20481;-67
2020/12/15 08:15:53;;;;;;;1.23;1.23;;;19.80;55.00;;;;;;5071008;28;20491;-65
2020/12/15 08:18:19;;;;;;;1.13;1.13;;;19.90;55.10;;;;;;5067118;28;20492;-66
2020/12/15 08:20:46;;;;;;;2.00;1.90;;;19.80;55.00;;;;;;5088081;28;20461;-66
2020/12/15 08:23:12;;;;;;;1.33;1.33;;;19.70;54.90;;;;;;5082039;28;20488;-66
2020/12/15 08:25:43;;;;;;;1.53;1.10;;;19.70;54.90;;;;;;5081807;28;20465;-66
2020/12/15 08:28:10;;;;;;;1.10;1.10;;;19.60;54.80;;;;;;5071992;28;20516;-66
2020/12/15 08:30:36;;;;;;;1.00;1.00;;;19.60;54.80;;;;;;5071500;28;20484;-66
2020/12/15 08:33:03;;;;;;;1.20;1.20;;;19.60;54.80;;;;;;5072528;28;20469;-66
2020/12/15 08:35:29;;;;;;;1.17;1.17;;;19.60;54.80;;;;;;5071921;28;21037;-66
2020/12/15 08:37:57;;;;;;;1.53;1.53;;;19.50;54.70;;;;;;5072029;28;20477;-66
2020/12/15 08:40:24;;;;;;;1.10;1.10;;;19.60;55.00;;;;;;5070649;28;20486;-67
2020/12/15 08:42:51;;;;;;;1.20;1.20;;;19.50;54.90;;;;;;5070393;28;20489;-66
2020/12/15 08:45:17;;;;;;;1.53;1.43;;;19.50;55.80;;;;;;5070414;28;20493;-66
2020/12/15 08:47:45;;;;;;;1.67;0.90;;;19.50;55.30;;;;;;5068923;28;20481;-68
2020/12/15 08:50:13;;;;;;;1.17;1.17;;;19.50;55.30;;;;;;5069275;28;20473;-66
2020/12/15 08:52:39;;;;;;;1.20;1.10;;;19.50;55.50;;;;;;5068708;28;20473;-67
2020/12/15 08:55:05;;;;;;;1.20;1.20;;;19.50;55.20;;;;;;5070765;28;20488;-67
2020/12/15 08:57:32;;;;;;;1.47;1.37;;;19.50;55.10;;;;;;5067888;28;21007;-67
2020/12/15 09:00:12;;;;;;;1.97;1.10;;;19.50;55.50;;;;;;5047150;28;20970;-66
2020/12/15 09:02:38;;;;;;;2.40;1.30;;;19.60;55.40;;;;;;5072656;28;20476;-67
2020/12/15 09:05:06;;;;;;;1.67;1.57;;;19.60;55.50;;;;;;5072057;28;20492;-67
2020/12/15 09:07:33;;;;;;;1.50;1.10;;;19.60;55.80;;;;;;5072300;28;20626;-67
2020/12/15 09:10:11;;;;;;;1.23;1.13;;;19.60;55.90;;;;;;5072728;28;20485;-67
2020/12/15 09:12:37;;;;;;;1.10;1.00;;;19.60;56.10;;;;;;5071763;28;20996;-66
2020/12/15 09:15:04;;;;;;;1.10;1.00;;;19.60;56.00;;;;;;5071723;28;20472;-65
2020/12/15 09:17:30;;;;;;;1.67;1.57;;;19.70;55.70;;;;;;5073411;28;20484;-68
2020/12/15 09:19:56;;;;;;;1.40;1.27;;;19.60;55.50;;;;;;5067428;28;20480;-67
2020/12/15 09:22:23;;;;;;;0.90;0.90;;;19.70;55.50;;;;;;5057037;28;20494;-67
2020/12/15 09:24:50;;;;;;;1.00;1.00;;;19.80;55.30;;;;;;5044931;28;20490;-66
2020/12/15 09:27:20;;;;;;;1.27;1.20;;;19.80;55.00;;;;;;5048627;28;20478;-67
2020/12/15 09:29:46;;;;;;;1.63;1.37;;;19.90;55.00;;;;;;5039127;28;20486;-67
2020/12/15 09:32:12;;;;;;;1.30;1.30;;;19.90;55.30;;;;;;5043753;28;20853;-66
2020/12/15 09:34:38;;;;;;;1.50;1.50;;;19.90;55.60;;;;;;5051173;28;20849;-67
2020/12/15 09:37:04;;;;;;;2.50;1.53;;;20.00;56.00;;;;;;5050016;28;20494;-67
2020/12/15 09:39:31;;;;;;;1.03;1.03;;;20.00;55.70;;;;;;5053920;28;20490;-67
2020/12/15 09:41:58;;;;;;;1.10;1.10;;;20.00;55.90;;;;;;5054235;28;20856;-66
2020/12/15 09:44:24;;;;;;;1.20;1.20;;;20.00;55.40;;;;;;5021030;28;20486;-67
2020/12/15 09:46:51;;;;;;;1.10;1.10;;;20.00;55.50;;;;;;5049406;28;21787;-68
2020/12/15 09:49:17;;;;;;;1.27;1.27;;;20.10;55.30;;;;;;5051498;28;20485;-68
2020/12/15 09:51:43;;;;;;;1.27;1.27;;;20.00;55.70;;;;;;5059801;28;20484;-68
2020/12/15 09:54:09;;;;;;;1.00;1.00;;;20.10;55.20;;;;;;5055434;28;20480;-67
2020/12/15 09:56:36;;;;;;;1.23;0.93;;;20.10;55.60;;;;;;5066269;28;20477;-67
2020/12/15 09:59:03;;;;;;;1.07;1.07;;;20.10;55.20;;;;;;5065931;28;21170;-67
2020/12/15 10:01:30;;;;;;;1.10;1.00;;;20.20;55.30;;;;;;5068203;28;20488;-66
2020/12/15 10:03:56;;;;;;;1.30;1.30;;;20.20;55.30;;;;;;5068565;28;20497;-67
2020/12/15 10:06:22;;;;;;;1.23;1.13;;;20.20;55.30;;;;;;5070875;28;20473;-67
2020/12/15 10:08:48;;;;;;;2.83;1.37;;;20.20;55.30;;;;;;5068732;28;20481;-67
2020/12/15 10:11:15;;;;;;;1.10;1.10;;;20.20;55.30;;;;;;5070701;28;20481;-68
2020/12/15 10:13:41;;;;;;;1.27;1.27;;;20.20;55.30;;;;;;5043950;28;20486;-67
2020/12/15 10:16:09;;;;;;;1.00;1.00;;;20.20;55.30;;;;;;5048148;28;20539;-68
2020/12/15 10:18:35;;;;;;;1.03;1.03;;;20.20;55.30;;;;;;5030073;28;21020;-67
2020/12/15 10:21:02;;;;;;;1.37;1.27;;;20.20;55.40;;;;;;5025473;28;20607;-67
2020/12/15 10:23:28;;;;;;;1.40;1.40;;;20.10;56.00;;;;;;5049794;28;20478;-67
2020/12/15 10:25:56;;;;;;;0.70;0.70;;;20.10;55.20;;;;;;5075422;28;20473;-67
2020/12/15 10:28:22;;;;;;;1.30;1.20;;;20.10;55.20;;;;;;5062828;28;20613;-67
2020/12/15 10:30:48;;;;;;;1.47;1.47;;;20.10;55.20;;;;;;5073139;28;21007;-67
2020/12/15 10:33:15;;;;;;;2.63;1.40;;;20.10;55.20;;;;;;5072950;28;20835;-66
2020/12/15 10:35:41;;;;;;;1.00;1.00;;;20.10;55.20;;;;;;5063418;28;20561;-67
2020/12/15 10:38:07;;;;;;;1.13;1.10;;;20.10;55.20;;;;;;5077243;28;20476;-68
2020/12/15 10:40:33;;;;;;;2.83;1.30;;;20.10;55.20;;;;;;5073966;28;20543;-67
2020/12/15 10:42:59;;;;;;;1.00;1.00;;;20.10;55.20;;;;;;5075107;28;20485;-67
2020/12/15 10:45:26;;;;;;;1.60;1.50;;;20.10;55.20;;;;;;5060502;28;20578;-68
2020/12/15 10:47:52;;;;;;;1.00;1.00;;;20.10;55.20;;;;;;5073761;28;20484;-68
2020/12/15 10:50:19;;;;;;;0.90;0.90;;;20.10;55.20;;;;;;5033283;28;20488;-66
2020/12/15 10:52:45;;;;;;;1.10;1.10;;;20.10;55.20;;;;;;5039795;28;20489;-68
2020/12/15 10:55:11;;;;;;;1.30;1.30;;;20.10;55.20;;;;;;5044901;28;21004;-68
2020/12/15 10:57:37;;;;;;;1.00;1.00;;;20.10;55.20;;;;;;5031369;28;20496;-67
2020/12/15 11:00:04;;;;;;;0.87;0.87;;;20.10;55.20;;;;;;5027249;28;20846;-67
2020/12/15 11:02:30;;;;;;;0.73;0.73;;;20.10;55.20;;;;;;5057384;28;20508;-67
2020/12/15 11:04:56;;;;;;;0.93;0.93;;;20.10;55.30;;;;;;5060012;28;20489;-67
2020/12/15 11:07:23;;;;;;;1.20;1.20;;;20.10;55.20;;;;;;5042669;28;20481;-68
2020/12/15 11:09:49;;;;;;;1.10;1.10;;;20.10;55.20;;;;;;5039709;28;20478;-68
2020/12/15 11:12:16;;;;;;;1.53;1.20;;;20.10;55.20;;;;;;5037033;28;20486;-67
2020/12/15 11:14:42;;;;;;;1.20;1.10;;;20.10;55.20;;;;;;5050859;28;20480;-67
2020/12/15 11:17:08;;;;;;;0.90;0.90;;;20.10;56.10;;;;;;5041173;28;20489;-68
2020/12/15 11:19:34;;;;;;;0.93;0.93;;;20.20;55.30;;;;;;5054430;28;20484;-67
2020/12/15 11:22:01;;;;;;;2.10;0.90;;;20.20;55.30;;;;;;5049951;28;20493;-67
2020/12/15 11:24:28;;;;;;;1.10;1.10;;;20.20;55.30;;;;;;5053499;28;20509;-67
2020/12/15 11:26:54;;;;;;;0.83;0.83;;;20.20;55.30;;;;;;5050595;28;20493;-67
2020/12/15 11:29:20;;;;;;;0.83;0.83;;;20.20;56.10;;;;;;5053412;28;20474;-65
2020/12/15 11:31:49;;;;;;;0.90;0.90;;;20.20;55.30;;;;;;5071476;28;20488;-68
2020/12/15 11:34:15;;;;;;;1.30;1.20;;;20.10;55.30;;;;;;5070981;28;20481;-68
2020/12/15 11:36:41;;;;;;;1.13;1.13;;;20.10;55.20;;;;;;5070972;28;20483;-68
2020/12/15 11:39:07;;;;;;;1.00;1.00;;;20.10;55.20;;;;;;5069300;28;20476;-68
2020/12/15 11:41:35;;;;;;;1.17;1.10;;;20.10;55.20;;;;;;5052309;28;20512;-67
2020/12/15 11:44:01;;;;;;;1.10;1.07;;;20.10;55.30;;;;;;5040797;28;20509;-68
2020/12/15 11:46:27;;;;;;;1.10;1.10;;;20.00;55.20;;;;;;5034805;28;20474;-68
2020/12/15 11:48:53;;;;;;;1.17;1.10;;;20.10;55.20;;;;;;5047776;28;20494;-68
2020/12/15 11:51:21;;;;;;;0.93;0.93;;;20.00;55.20;;;;;;5063007;28;20469;-67
2020/12/15 11:53:47;;;;;;;1.10;1.10;;;20.00;55.20;;;;;;5065317;28;21045;-68
2020/12/15 11:56:16;;;;;;;1.43;1.40;;;20.00;55.20;;;;;;4995803;28;20943;-67
2020/12/15 11:58:43;;;;;;;1.23;1.10;;;20.00;55.20;;;;;;5044560;28;20905;-67
2020/12/15 12:01:09;;;;;;;0.83;0.83;;;20.00;55.20;;;;;;5045391;28;20478;-68
2020/12/15 12:03:35;;;;;;;1.47;1.37;;;20.00;55.20;;;;;;5029804;28;20489;-69
2020/12/15 12:06:01;;;;;;;1.00;0.90;;;20.00;55.20;;;;;;5050587;28;20490;-68
2020/12/15 12:08:28;;;;;;;1.53;1.27;;;20.00;55.20;;;;;;5042748;28;20489;-67
2020/12/15 12:10:54;;;;;;;0.83;0.73;;;20.00;55.20;;;;;;5049147;28;20477;-67
2020/12/15 12:13:20;;;;;;;1.77;1.67;;;19.90;55.10;;;;;;5027878;28;20494;-69
2020/12/15 12:15:47;;;;;;;1.10;1.10;;;19.90;55.10;;;;;;5035776;28;20510;-68
2020/12/15 12:18:13;;;;;;;1.13;1.07;;;19.90;55.10;;;;;;5038031;28;20483;-68
2020/12/15 12:20:40;;;;;;;1.30;1.20;;;20.00;55.20;;;;;;5027129;28;20506;-68
2020/12/15 12:23:06;;;;;;;1.03;1.00;;;20.00;55.20;;;;;;5013219;28;20504;-69
2020/12/15 12:25:32;;;;;;;1.00;1.00;;;20.00;55.20;;;;;;5044812;28;20524;-68
2020/12/15 12:27:58;;;;;;;1.83;1.20;;;20.10;55.20;;;;;;5049558;28;20474;-68
2020/12/15 12:30:24;;;;;;;1.13;1.13;;;20.10;55.20;;;;;;5048984;28;20474;-69
2020/12/15 12:32:51;;;;;;;1.97;1.30;;;20.10;55.20;;;;;;5028480;28;20481;-69
2020/12/15 12:35:17;;;;;;;1.10;1.00;;;20.10;55.20;;;;;;5049201;28;20488;-69
2020/12/15 12:37:43;;;;;;;4.00;1.30;;;20.10;55.20;;;;;;5039171;28;20494;-69
2020/12/15 12:40:11;;;;;;;1.30;1.20;;;20.10;55.20;;;;;;5050034;28;20487;-69
2020/12/15 12:42:38;;;;;;;0.90;0.90;;;20.10;55.20;;;;;;5044103;28;20568;-69
2020/12/15 12:45:04;;;;;;;0.90;0.90;;;20.10;55.20;;;;;;5049844;28;20988;-69